createdAt,value
2017-11-05T00:00:59.159Z,0.00
2017-11-05T00:01:59.171Z,0.00
2017-11-05T00:02:59.225Z,0.00
2017-11-05T00:03:59.230Z,0.00
2017-11-05T00:04:59.580Z,0.00
2017-11-05T00:05:59.329Z,0.00
2017-11-05T00:06:59.344Z,0.00
2017-11-05T00:07:59.377Z,0.00
2017-11-05T00:08:59.465Z,0.00
2017-11-05T00:09:59.475Z,0.00
2017-11-05T00:10:59.444Z,0.00
2017-11-05T00:11:59.726Z,0.00
2017-11-05T00:12:59.511Z,0.00
2017-11-05T00:13:59.538Z,0.00
2017-11-05T00:14:59.569Z,0.00
2017-11-05T00:15:59.617Z,0.00
2017-11-05T00:16:59.648Z,0.00
2017-11-05T00:17:59.659Z,0.00
2017-11-05T00:18:59.946Z,0.00
2017-11-05T00:19:59.722Z,0.00
2017-11-05T00:20:59.776Z,0.00
2017-11-05T00:21:59.782Z,0.00
2017-11-05T00:22:59.812Z,0.00
2017-11-05T00:23:59.844Z,0.00
2017-11-05T00:25:00.145Z,0.00
2017-11-05T00:25:59.923Z,0.00
2017-11-05T00:26:59.951Z,0.00
2017-11-05T00:27:59.963Z,0.00
2017-11-05T00:29:00.099Z,0.00
2017-11-05T00:30:00.028Z,0.00
2017-11-05T00:31:00.372Z,0.00
2017-11-05T00:32:00.106Z,0.00
2017-11-05T00:33:00.119Z,0.00
2017-11-05T00:34:00.166Z,0.00
2017-11-05T00:35:00.177Z,0.00
2017-11-05T00:36:00.220Z,0.00
2017-11-05T00:37:00.494Z,0.00
2017-11-05T00:38:00.290Z,0.00
2017-11-05T00:39:00.341Z,0.00
2017-11-05T00:40:00.348Z,0.00
2017-11-05T00:41:00.368Z,0.00
2017-11-05T00:42:00.400Z,0.00
2017-11-05T00:43:00.747Z,0.00
2017-11-05T00:44:00.484Z,0.00
2017-11-05T00:45:00.485Z,0.00
2017-11-05T00:46:00.514Z,0.00
2017-11-05T00:47:00.564Z,0.00
2017-11-05T00:48:00.607Z,0.00
2017-11-05T00:49:00.939Z,0.00
2017-11-05T00:50:00.655Z,0.00
2017-11-05T00:51:00.673Z,0.00
2017-11-05T00:52:00.703Z,0.00
2017-11-05T00:53:00.747Z,0.00
2017-11-05T00:54:00.786Z,0.00
2017-11-05T00:55:01.112Z,0.00
2017-11-05T00:56:00.842Z,0.00
2017-11-05T00:57:00.867Z,0.00
2017-11-05T00:58:00.880Z,0.00
2017-11-05T00:59:00.922Z,0.00
2017-11-05T01:00:01.091Z,0.00
2017-11-05T01:01:01.299Z,0.00
2017-11-05T01:02:01.012Z,0.00
2017-11-05T01:03:01.036Z,0.00
2017-11-05T01:04:01.084Z,0.00
2017-11-05T01:05:01.108Z,0.00
2017-11-05T01:06:01.301Z,0.00
2017-11-05T01:07:01.424Z,0.00
2017-11-05T01:08:01.203Z,0.00
2017-11-05T01:09:01.222Z,0.00
2017-11-05T01:10:01.273Z,0.00
2017-11-05T01:11:01.296Z,0.00
2017-11-05T01:12:01.313Z,0.00
2017-11-05T01:13:01.644Z,0.00
2017-11-05T01:14:01.368Z,0.00
2017-11-05T01:15:01.416Z,0.00
2017-11-05T01:16:01.503Z,0.00
2017-11-05T01:17:01.846Z,0.00
2017-11-05T01:18:01.497Z,0.00
2017-11-05T01:19:01.779Z,0.00
2017-11-05T01:20:01.553Z,0.00
2017-11-05T01:21:01.586Z,0.00
2017-11-05T01:22:01.611Z,0.00
2017-11-05T01:23:01.662Z,0.00
2017-11-05T01:24:01.690Z,0.00
2017-11-05T01:25:01.970Z,0.00
2017-11-05T01:26:01.759Z,0.00
2017-11-05T01:27:01.768Z,0.00
2017-11-05T01:28:01.810Z,0.00
2017-11-05T01:29:01.854Z,0.00
2017-11-05T01:30:01.868Z,0.00
2017-11-05T01:31:02.191Z,0.00
2017-11-05T01:32:01.944Z,0.00
2017-11-05T01:33:01.960Z,0.00
2017-11-05T01:34:01.996Z,0.00
2017-11-05T01:35:02.032Z,0.00
2017-11-05T01:36:02.058Z,0.00
2017-11-05T01:37:02.390Z,0.00
2017-11-05T01:38:02.126Z,0.00
2017-11-05T01:39:02.137Z,0.00
2017-11-05T01:40:02.193Z,0.00
2017-11-05T01:41:02.191Z,0.00
2017-11-05T01:42:02.241Z,0.00
2017-11-05T01:43:02.351Z,0.00
2017-11-05T01:44:02.555Z,0.00
2017-11-05T01:45:02.326Z,0.00
2017-11-05T01:46:02.377Z,0.00
2017-11-05T01:47:02.393Z,0.00
2017-11-05T01:48:02.406Z,0.00
2017-11-05T01:49:02.433Z,0.00
2017-11-05T01:50:02.483Z,0.00
2017-11-05T01:51:02.820Z,0.00
2017-11-05T01:52:02.534Z,0.00
2017-11-05T01:53:02.579Z,0.00
2017-11-05T01:54:02.615Z,0.00
2017-11-05T01:55:02.640Z,0.00
2017-11-05T01:56:02.682Z,0.00
2017-11-05T01:57:02.721Z,0.00
2017-11-05T01:58:03.027Z,0.00
2017-11-05T01:59:02.746Z,0.00
2017-11-05T02:00:02.773Z,0.00
2017-11-05T02:01:02.805Z,0.00
2017-11-05T02:02:02.854Z,0.00
2017-11-05T02:03:02.900Z,0.00
2017-11-05T02:04:02.910Z,0.00
2017-11-05T02:05:03.206Z,0.00
2017-11-05T02:06:02.972Z,0.00
2017-11-05T02:07:03.049Z,0.00
2017-11-05T02:08:03.032Z,0.00
2017-11-05T02:09:03.046Z,0.00
2017-11-05T02:10:03.080Z,0.00
2017-11-05T02:11:03.126Z,0.00
2017-11-05T02:12:03.451Z,0.00
2017-11-05T02:13:03.186Z,0.00
2017-11-05T02:14:03.314Z,0.00
2017-11-05T02:15:03.229Z,0.00
2017-11-05T02:16:03.259Z,0.00
2017-11-05T02:17:03.288Z,0.00
2017-11-05T02:18:03.341Z,0.00
2017-11-05T02:19:03.667Z,0.00
2017-11-05T02:20:03.421Z,0.00
2017-11-05T02:21:03.410Z,0.00
2017-11-05T02:22:03.444Z,0.00
2017-11-05T02:23:03.493Z,0.00
2017-11-05T02:24:03.506Z,0.00
2017-11-05T02:25:03.548Z,0.00
2017-11-05T02:26:03.903Z,0.00
2017-11-05T02:27:03.602Z,0.00
2017-11-05T02:28:03.624Z,0.00
2017-11-05T02:29:03.660Z,0.00
2017-11-05T02:30:03.685Z,0.00
2017-11-05T02:31:03.734Z,0.00
2017-11-05T02:32:03.747Z,0.00
2017-11-05T02:33:04.093Z,0.00
2017-11-05T02:34:03.819Z,0.00
2017-11-05T02:35:03.838Z,0.00
2017-11-05T02:36:03.886Z,0.00
2017-11-05T02:37:03.916Z,0.00
2017-11-05T02:38:03.929Z,0.00
2017-11-05T02:39:03.963Z,0.00
2017-11-05T02:40:04.308Z,0.00
2017-11-05T02:41:04.042Z,0.00
2017-11-05T02:42:04.053Z,0.00
2017-11-05T02:43:04.117Z,0.00
2017-11-05T02:44:04.115Z,0.00
2017-11-05T02:45:04.143Z,0.00
2017-11-05T02:46:04.180Z,0.00
2017-11-05T02:47:04.479Z,0.00
2017-11-05T02:48:04.302Z,0.00
2017-11-05T02:49:04.265Z,0.00
2017-11-05T02:50:04.315Z,0.00
2017-11-05T02:51:04.349Z,0.00
2017-11-05T02:52:04.581Z,0.00
2017-11-05T02:53:04.394Z,0.00
2017-11-05T02:54:04.734Z,0.00
2017-11-05T02:55:04.449Z,0.00
2017-11-05T02:56:04.480Z,0.00
2017-11-05T02:57:04.536Z,0.00
2017-11-05T02:58:04.542Z,0.00
2017-11-05T02:59:04.586Z,0.00
2017-11-05T03:00:04.898Z,0.00
2017-11-05T03:01:04.652Z,0.00
2017-11-05T03:02:04.682Z,0.00
2017-11-05T03:03:04.777Z,0.00
2017-11-05T03:04:04.721Z,0.00
2017-11-05T03:05:04.751Z,0.00
2017-11-05T03:06:05.081Z,0.00
2017-11-05T03:07:04.822Z,0.00
2017-11-05T03:08:04.873Z,0.00
2017-11-05T03:09:04.892Z,0.00
2017-11-05T03:10:04.910Z,0.00
2017-11-05T03:11:04.939Z,0.00
2017-11-05T03:12:05.285Z,0.00
2017-11-05T03:13:04.995Z,0.00
2017-11-05T03:14:05.034Z,0.00
2017-11-05T03:15:05.073Z,0.00
2017-11-05T03:16:05.139Z,0.00
2017-11-05T03:17:05.118Z,0.00
2017-11-05T03:18:05.434Z,0.00
2017-11-05T03:19:05.178Z,0.00
2017-11-05T03:20:05.228Z,0.00
2017-11-05T03:21:05.246Z,0.00
2017-11-05T03:22:05.288Z,0.00
2017-11-05T03:23:05.308Z,0.00
2017-11-05T03:24:05.582Z,0.00
2017-11-05T03:25:05.397Z,0.00
2017-11-05T03:26:05.409Z,0.00
2017-11-05T03:27:05.433Z,0.00
2017-11-05T03:28:05.470Z,0.00
2017-11-05T03:29:05.495Z,0.00
2017-11-05T03:30:05.827Z,0.00
2017-11-05T03:31:05.559Z,0.00
2017-11-05T03:32:05.591Z,0.00
2017-11-05T03:33:05.600Z,0.00
2017-11-05T03:34:05.635Z,0.00
2017-11-05T03:35:05.666Z,0.00
2017-11-05T03:36:05.956Z,0.00
2017-11-05T03:37:05.748Z,0.00
2017-11-05T03:38:05.786Z,0.00
2017-11-05T03:39:05.785Z,0.00
2017-11-05T03:40:05.842Z,0.00
2017-11-05T03:41:05.880Z,0.00
2017-11-05T03:42:06.124Z,0.00
2017-11-05T03:43:05.909Z,0.00
2017-11-05T03:44:05.936Z,0.00
2017-11-05T03:45:05.987Z,0.00
2017-11-05T03:46:06.018Z,0.00
2017-11-05T03:47:06.046Z,0.00
2017-11-05T03:48:06.357Z,0.00
2017-11-05T03:49:06.092Z,0.00
2017-11-05T03:50:06.149Z,0.00
2017-11-05T03:51:06.160Z,0.00
2017-11-05T03:52:06.203Z,0.00
2017-11-05T03:53:06.262Z,0.00
2017-11-05T03:54:06.572Z,0.00
2017-11-05T03:55:06.287Z,0.00
2017-11-05T03:56:06.317Z,0.00
2017-11-05T03:57:06.337Z,0.00
2017-11-05T03:58:06.380Z,0.00
2017-11-05T03:59:06.413Z,0.00
2017-11-05T04:00:06.686Z,0.00
2017-11-05T04:01:06.485Z,0.00
2017-11-05T04:02:06.485Z,0.00
2017-11-05T04:03:06.527Z,0.00
2017-11-05T04:04:06.567Z,0.00
2017-11-05T04:05:06.594Z,0.00
2017-11-05T04:06:06.871Z,0.00
2017-11-05T04:07:06.665Z,0.00
2017-11-05T04:08:06.664Z,0.00
2017-11-05T04:09:06.751Z,0.00
2017-11-05T04:10:06.744Z,0.00
2017-11-05T04:11:06.765Z,0.00
2017-11-05T04:12:07.061Z,0.00
2017-11-05T04:13:06.818Z,0.00
2017-11-05T04:14:06.853Z,0.00
2017-11-05T04:15:06.898Z,0.00
2017-11-05T04:16:06.912Z,0.00
2017-11-05T04:17:06.939Z,0.00
2017-11-05T04:18:06.969Z,0.00
2017-11-05T04:19:07.337Z,0.00
2017-11-05T04:20:07.046Z,0.00
2017-11-05T04:21:07.075Z,0.00
2017-11-05T04:22:07.090Z,0.00
2017-11-05T04:23:07.142Z,0.00
2017-11-05T04:24:07.171Z,0.00
2017-11-05T04:25:07.182Z,0.00
2017-11-05T04:26:07.515Z,0.00
2017-11-05T04:27:07.243Z,0.00
2017-11-05T04:28:07.295Z,0.00
2017-11-05T04:29:07.311Z,0.00
2017-11-05T04:30:07.337Z,0.00
2017-11-05T04:31:07.362Z,0.00
2017-11-05T04:32:07.422Z,0.00
2017-11-05T04:33:07.694Z,0.00
2017-11-05T04:34:07.457Z,0.00
2017-11-05T04:35:07.506Z,0.00
2017-11-05T04:36:07.549Z,0.00
2017-11-05T04:37:07.552Z,0.00
2017-11-05T04:38:07.577Z,0.00
2017-11-05T04:39:07.625Z,0.00
2017-11-05T04:40:07.906Z,0.00
2017-11-05T04:41:07.688Z,0.00
2017-11-05T04:42:07.704Z,0.00
2017-11-05T04:43:07.743Z,0.00
2017-11-05T04:44:07.786Z,0.00
2017-11-05T04:45:07.787Z,0.00
2017-11-05T04:46:07.820Z,0.00
2017-11-05T04:47:08.177Z,0.00
2017-11-05T04:48:07.921Z,0.00
2017-11-05T04:49:07.932Z,0.00
2017-11-05T04:50:07.940Z,0.00
2017-11-05T04:51:08.012Z,0.00
2017-11-05T04:52:08.043Z,0.00
2017-11-05T04:53:08.150Z,0.00
2017-11-05T04:54:08.314Z,0.00
2017-11-05T04:55:08.111Z,0.00
2017-11-05T04:56:08.140Z,0.00
2017-11-05T04:57:08.231Z,0.00
2017-11-05T04:58:08.212Z,0.00
2017-11-05T04:59:08.214Z,0.00
2017-11-05T05:00:08.270Z,0.00
2017-11-05T05:01:08.572Z,0.00
2017-11-05T05:02:08.338Z,0.00
2017-11-05T05:03:08.378Z,0.00
2017-11-05T05:04:08.596Z,0.00
2017-11-05T05:05:08.416Z,0.00
2017-11-05T05:06:08.424Z,0.00
2017-11-05T05:07:08.466Z,0.00
2017-11-05T05:08:08.791Z,0.00
2017-11-05T05:09:08.535Z,0.00
2017-11-05T05:10:08.565Z,0.00
2017-11-05T05:11:08.597Z,0.00
2017-11-05T05:12:08.624Z,0.00
2017-11-05T05:13:08.666Z,0.00
2017-11-05T05:14:08.684Z,0.00
2017-11-05T05:15:09.006Z,0.00
2017-11-05T05:16:08.755Z,0.00
2017-11-05T05:17:08.775Z,0.00
2017-11-05T05:18:08.807Z,0.00
2017-11-05T05:19:08.859Z,0.00
2017-11-05T05:20:08.973Z,0.00
2017-11-05T05:21:08.903Z,0.00
2017-11-05T05:22:09.226Z,0.00
2017-11-05T05:23:08.961Z,0.00
2017-11-05T05:24:08.972Z,0.00
2017-11-05T05:25:09.114Z,0.00
2017-11-05T05:26:09.052Z,0.00
2017-11-05T05:27:09.070Z,0.00
2017-11-05T05:28:09.111Z,0.00
2017-11-05T05:29:09.371Z,0.00
2017-11-05T05:30:09.155Z,0.00
2017-11-05T05:31:09.191Z,0.00
2017-11-05T05:32:09.229Z,0.00
2017-11-05T05:33:09.243Z,0.00
2017-11-05T05:34:09.292Z,0.00
2017-11-05T05:35:09.625Z,0.00
2017-11-05T05:36:09.354Z,0.00
2017-11-05T05:37:09.377Z,0.00
2017-11-05T05:38:09.417Z,0.00
2017-11-05T05:39:09.427Z,0.00
2017-11-05T05:40:09.458Z,0.00
2017-11-05T05:41:09.755Z,0.00
2017-11-05T05:42:09.547Z,0.00
2017-11-05T05:43:09.569Z,0.00
2017-11-05T05:44:09.598Z,0.00
2017-11-05T05:45:09.605Z,0.00
2017-11-05T05:46:09.661Z,0.00
2017-11-05T05:47:09.919Z,0.00
2017-11-05T05:48:09.706Z,0.00
2017-11-05T05:49:09.755Z,0.00
2017-11-05T05:50:09.772Z,0.00
2017-11-05T05:51:09.789Z,0.00
2017-11-05T05:52:09.826Z,0.00
2017-11-05T05:53:10.180Z,0.00
2017-11-05T05:54:09.896Z,0.00
2017-11-05T05:55:09.974Z,0.00
2017-11-05T05:56:09.952Z,0.00
2017-11-05T05:57:09.968Z,0.00
2017-11-05T05:58:10.019Z,0.00
2017-11-05T05:59:10.346Z,0.00
2017-11-05T06:00:10.074Z,0.00
2017-11-05T06:01:10.090Z,0.00
2017-11-05T06:02:10.135Z,0.00
2017-11-05T06:03:10.173Z,0.00
2017-11-05T06:04:10.209Z,0.00
2017-11-05T06:05:10.519Z,0.00
2017-11-05T06:06:10.260Z,0.00
2017-11-05T06:07:10.372Z,0.00
2017-11-05T06:08:10.306Z,0.00
2017-11-05T06:09:10.329Z,0.00
2017-11-05T06:10:10.382Z,0.00
2017-11-05T06:11:10.721Z,0.00
2017-11-05T06:12:10.441Z,0.00
2017-11-05T06:13:10.464Z,0.00
2017-11-05T06:14:10.486Z,0.00
2017-11-05T06:15:10.515Z,0.00
2017-11-05T06:16:10.563Z,0.00
2017-11-05T06:17:10.844Z,0.00
2017-11-05T06:18:10.612Z,0.00
2017-11-05T06:19:10.652Z,0.00
2017-11-05T06:20:10.685Z,0.00
2017-11-05T06:21:10.712Z,0.00
2017-11-05T06:22:10.877Z,0.00
2017-11-05T06:23:11.063Z,0.00
2017-11-05T06:24:10.822Z,0.00
2017-11-05T06:25:10.837Z,0.00
2017-11-05T06:26:10.875Z,0.00
2017-11-05T06:27:10.900Z,0.00
2017-11-05T06:28:10.904Z,0.00
2017-11-05T06:29:11.186Z,0.00
2017-11-05T06:30:10.986Z,0.00
2017-11-05T06:31:11.022Z,0.00
2017-11-05T06:32:11.042Z,0.00
2017-11-05T06:33:11.090Z,0.00
2017-11-05T06:34:11.102Z,0.00
2017-11-05T06:35:11.437Z,0.00
2017-11-05T06:36:11.164Z,0.00
2017-11-05T06:37:11.206Z,0.00
2017-11-05T06:38:11.223Z,0.00
2017-11-05T06:39:11.255Z,0.00
2017-11-05T06:40:11.293Z,0.00
2017-11-05T06:41:11.549Z,0.00
2017-11-05T06:42:11.353Z,0.00
2017-11-05T06:43:11.412Z,0.00
2017-11-05T06:44:11.485Z,0.00
2017-11-05T06:45:11.440Z,0.00
2017-11-05T06:46:11.467Z,0.00
2017-11-05T06:47:11.610Z,0.00
2017-11-05T06:48:11.831Z,0.00
2017-11-05T06:49:11.555Z,0.00
2017-11-05T06:50:11.588Z,0.00
2017-11-05T06:51:11.617Z,0.00
2017-11-05T06:52:11.671Z,0.00
2017-11-05T06:53:11.700Z,0.00
2017-11-05T06:54:11.710Z,0.00
2017-11-05T06:55:12.066Z,0.00
2017-11-05T06:56:11.759Z,0.00
2017-11-05T06:57:11.812Z,0.00
2017-11-05T06:58:11.828Z,0.00
2017-11-05T06:59:11.872Z,0.00
2017-11-05T07:00:11.877Z,0.00
2017-11-05T07:01:11.915Z,0.00
2017-11-05T07:02:12.228Z,0.00
2017-11-05T07:03:11.970Z,0.00
2017-11-05T07:04:11.991Z,0.00
2017-11-05T07:05:12.046Z,0.00
2017-11-05T07:06:12.063Z,5.63
2017-11-05T07:07:12.083Z,5.63
2017-11-05T07:08:12.156Z,5.63
2017-11-05T07:09:12.385Z,5.63
2017-11-05T07:10:12.189Z,5.63
2017-11-05T07:11:12.268Z,5.63
2017-11-05T07:12:12.228Z,5.63
2017-11-05T07:13:12.278Z,5.63
2017-11-05T07:14:12.305Z,5.63
2017-11-05T07:15:12.353Z,5.63
2017-11-05T07:16:12.675Z,5.63
2017-11-05T07:17:12.410Z,5.63
2017-11-05T07:18:12.426Z,5.63
2017-11-05T07:19:12.458Z,5.63
2017-11-05T07:20:12.484Z,5.63
2017-11-05T07:21:12.548Z,5.63
2017-11-05T07:22:12.532Z,5.63
2017-11-05T07:23:12.868Z,5.63
2017-11-05T07:24:12.604Z,5.63
2017-11-05T07:25:12.640Z,5.63
2017-11-05T07:26:12.653Z,5.63
2017-11-05T07:27:12.683Z,5.63
2017-11-05T07:28:12.715Z,5.63
2017-11-05T07:29:12.754Z,5.63
2017-11-05T07:30:13.096Z,5.63
2017-11-05T07:31:12.821Z,5.63
2017-11-05T07:32:12.830Z,11.25
2017-11-05T07:33:12.876Z,11.25
2017-11-05T07:34:12.887Z,11.25
2017-11-05T07:35:12.925Z,11.25
2017-11-05T07:36:12.950Z,11.25
2017-11-05T07:37:13.305Z,11.25
2017-11-05T07:38:13.027Z,11.25
2017-11-05T07:39:13.046Z,11.25
2017-11-05T07:40:13.070Z,11.25
2017-11-05T07:41:13.126Z,11.25
2017-11-05T07:42:13.131Z,11.25
2017-11-05T07:43:13.197Z,11.25
2017-11-05T07:44:13.497Z,11.25
2017-11-05T07:45:13.265Z,11.25
2017-11-05T07:46:13.286Z,11.25
2017-11-05T07:47:13.510Z,11.25
2017-11-05T07:48:13.332Z,11.25
2017-11-05T07:49:13.357Z,11.25
2017-11-05T07:50:13.388Z,11.25
2017-11-05T07:51:13.653Z,16.88
2017-11-05T07:52:13.461Z,16.88
2017-11-05T07:53:13.484Z,22.50
2017-11-05T07:54:13.511Z,22.50
2017-11-05T07:55:13.528Z,22.50
2017-11-05T07:56:13.575Z,22.50
2017-11-05T07:57:13.598Z,28.13
2017-11-05T07:58:13.885Z,28.13
2017-11-05T07:59:13.643Z,28.13
2017-11-05T08:00:13.687Z,22.50
2017-11-05T08:01:13.706Z,22.50
2017-11-05T08:02:13.756Z,22.50
2017-11-05T08:03:13.765Z,22.50
2017-11-05T08:04:14.063Z,16.88
2017-11-05T08:05:13.847Z,16.88
2017-11-05T08:06:13.855Z,11.25
2017-11-05T08:07:13.886Z,5.63
2017-11-05T08:08:13.980Z,5.63
2017-11-05T08:09:13.943Z,5.63
2017-11-05T08:10:14.226Z,5.63
2017-11-05T08:11:14.006Z,5.63
2017-11-05T08:12:14.036Z,5.63
2017-11-05T08:13:14.085Z,5.63
2017-11-05T08:14:14.096Z,5.63
2017-11-05T08:15:14.140Z,5.63
2017-11-05T08:16:14.422Z,5.63
2017-11-05T08:17:14.185Z,5.63
2017-11-05T08:18:14.220Z,5.63
2017-11-05T08:19:14.263Z,5.63
2017-11-05T08:20:14.276Z,5.63
2017-11-05T08:21:14.321Z,5.63
2017-11-05T08:22:14.586Z,5.63
2017-11-05T08:23:14.363Z,5.63
2017-11-05T08:24:14.401Z,11.25
2017-11-05T08:25:14.442Z,11.25
2017-11-05T08:26:14.459Z,11.25
2017-11-05T08:27:14.526Z,16.88
2017-11-05T08:28:14.790Z,16.88
2017-11-05T08:29:14.579Z,22.50
2017-11-05T08:30:14.576Z,22.50
2017-11-05T08:31:14.612Z,22.50
2017-11-05T08:32:14.659Z,28.13
2017-11-05T08:33:14.685Z,28.13
2017-11-05T08:34:14.967Z,28.13
2017-11-05T08:35:14.746Z,28.13
2017-11-05T08:36:14.789Z,33.75
2017-11-05T08:37:14.788Z,33.75
2017-11-05T08:38:14.815Z,33.75
2017-11-05T08:39:14.887Z,33.75
2017-11-05T08:40:15.181Z,28.13
2017-11-05T08:41:14.944Z,28.13
2017-11-05T08:42:14.947Z,28.13
2017-11-05T08:43:14.970Z,28.13
2017-11-05T08:44:15.019Z,33.75
2017-11-05T08:45:15.066Z,33.75
2017-11-05T08:46:15.312Z,33.75
2017-11-05T08:47:15.091Z,39.38
2017-11-05T08:48:15.117Z,39.38
2017-11-05T08:49:15.176Z,39.38
2017-11-05T08:50:15.199Z,39.38
2017-11-05T08:51:15.223Z,39.38
2017-11-05T08:52:15.508Z,39.38
2017-11-05T08:53:15.267Z,45.00
2017-11-05T08:54:15.297Z,39.38
2017-11-05T08:55:15.328Z,39.38
2017-11-05T08:56:15.361Z,39.38
2017-11-05T08:57:15.395Z,39.38
2017-11-05T08:58:15.739Z,39.38
2017-11-05T08:59:15.463Z,39.38
2017-11-05T09:00:15.506Z,39.38
2017-11-05T09:01:15.545Z,39.38
2017-11-05T09:02:15.565Z,39.38
2017-11-05T09:03:15.593Z,39.38
2017-11-05T09:04:15.871Z,39.38
2017-11-05T09:05:15.634Z,45.00
2017-11-05T09:06:15.678Z,45.00
2017-11-05T09:07:15.710Z,45.00
2017-11-05T09:08:15.721Z,50.63
2017-11-05T09:09:15.769Z,50.63
2017-11-05T09:10:16.096Z,56.25
2017-11-05T09:11:15.836Z,56.25
2017-11-05T09:12:15.847Z,56.25
2017-11-05T09:13:15.876Z,56.25
2017-11-05T09:14:15.952Z,56.25
2017-11-05T09:15:15.951Z,56.25
2017-11-05T09:16:15.998Z,45.00
2017-11-05T09:17:16.262Z,39.38
2017-11-05T09:18:16.045Z,33.75
2017-11-05T09:19:16.055Z,33.75
2017-11-05T09:20:16.102Z,39.38
2017-11-05T09:21:16.115Z,39.38
2017-11-05T09:22:16.165Z,50.63
2017-11-05T09:23:16.206Z,45.00
2017-11-05T09:24:16.474Z,45.00
2017-11-05T09:25:16.239Z,45.00
2017-11-05T09:26:16.285Z,39.38
2017-11-05T09:27:16.327Z,33.75
2017-11-05T09:28:16.353Z,39.38
2017-11-05T09:29:16.425Z,39.38
2017-11-05T09:30:16.441Z,45.00
2017-11-05T09:31:16.743Z,50.63
2017-11-05T09:32:16.523Z,61.88
2017-11-05T09:33:16.479Z,67.50
2017-11-05T09:34:16.529Z,73.13
2017-11-05T09:35:16.556Z,73.13
2017-11-05T09:36:16.594Z,73.13
2017-11-05T09:37:16.621Z,73.13
2017-11-05T09:38:17.034Z,73.13
2017-11-05T09:39:16.672Z,73.13
2017-11-05T09:40:16.693Z,73.13
2017-11-05T09:41:16.725Z,73.13
2017-11-05T09:42:16.773Z,73.13
2017-11-05T09:43:16.782Z,78.75
2017-11-05T09:44:16.846Z,78.75
2017-11-05T09:45:17.093Z,73.13
2017-11-05T09:46:16.877Z,73.13
2017-11-05T09:47:16.923Z,67.50
2017-11-05T09:48:16.954Z,61.88
2017-11-05T09:49:16.985Z,45.00
2017-11-05T09:50:17.013Z,50.63
2017-11-05T09:51:17.041Z,50.63
2017-11-05T09:52:17.378Z,56.25
2017-11-05T09:53:17.109Z,67.50
2017-11-05T09:54:17.138Z,73.13
2017-11-05T09:55:17.147Z,84.38
2017-11-05T09:56:17.184Z,90.00
2017-11-05T09:57:17.376Z,90.00
2017-11-05T09:58:17.242Z,90.00
2017-11-05T09:59:17.576Z,90.00
2017-11-05T10:00:17.301Z,90.00
2017-11-05T10:01:17.327Z,90.00
2017-11-05T10:02:17.367Z,90.00
2017-11-05T10:03:17.421Z,84.38
2017-11-05T10:04:17.495Z,84.38
2017-11-05T10:05:17.473Z,84.38
2017-11-05T10:06:17.746Z,90.00
2017-11-05T10:07:17.513Z,95.63
2017-11-05T10:08:17.559Z,101.25
2017-11-05T10:09:17.592Z,101.25
2017-11-05T10:10:17.605Z,101.25
2017-11-05T10:11:17.657Z,101.25
2017-11-05T10:12:17.818Z,101.25
2017-11-05T10:13:17.947Z,95.63
2017-11-05T10:14:17.750Z,95.63
2017-11-05T10:15:17.776Z,95.63
2017-11-05T10:16:17.805Z,95.63
2017-11-05T10:17:17.844Z,101.25
2017-11-05T10:18:17.866Z,101.25
2017-11-05T10:19:17.901Z,101.25
2017-11-05T10:20:18.166Z,95.63
2017-11-05T10:21:17.960Z,95.63
2017-11-05T10:22:17.977Z,95.63
2017-11-05T10:23:18.007Z,95.63
2017-11-05T10:24:18.037Z,95.63
2017-11-05T10:25:18.061Z,95.63
2017-11-05T10:26:18.115Z,95.63
2017-11-05T10:27:18.445Z,101.25
2017-11-05T10:28:18.154Z,101.25
2017-11-05T10:29:18.183Z,101.25
2017-11-05T10:30:18.238Z,101.25
2017-11-05T10:31:18.248Z,95.63
2017-11-05T10:32:18.278Z,95.63
2017-11-05T10:33:18.726Z,90.00
2017-11-05T10:34:18.340Z,95.63
2017-11-05T10:35:18.376Z,95.63
2017-11-05T10:36:18.420Z,95.63
2017-11-05T10:37:18.451Z,101.25
2017-11-05T10:38:18.469Z,101.25
2017-11-05T10:39:18.816Z,101.25
2017-11-05T10:40:18.547Z,101.25
2017-11-05T10:41:18.658Z,101.25
2017-11-05T10:42:18.631Z,106.88
2017-11-05T10:43:18.686Z,106.88
2017-11-05T10:44:18.666Z,106.88
2017-11-05T10:45:18.978Z,106.88
2017-11-05T10:46:18.708Z,106.88
2017-11-05T10:47:18.756Z,106.88
2017-11-05T10:48:18.822Z,106.88
2017-11-05T10:49:18.800Z,106.88
2017-11-05T10:50:18.849Z,106.88
2017-11-05T10:51:18.862Z,106.88
2017-11-05T10:52:18.913Z,106.88
2017-11-05T10:53:18.942Z,106.88
2017-11-05T10:54:18.972Z,106.88
2017-11-05T10:55:19.011Z,106.88
2017-11-05T10:56:19.034Z,106.88
2017-11-05T10:57:19.316Z,106.88
2017-11-05T10:58:19.210Z,106.88
2017-11-05T10:59:19.182Z,106.88
2017-11-05T11:00:19.172Z,106.88
2017-11-05T11:01:19.177Z,101.25
2017-11-05T11:02:19.215Z,106.88
2017-11-05T11:03:19.533Z,106.88
2017-11-05T11:04:19.260Z,106.88
2017-11-05T11:05:19.367Z,112.50
2017-11-05T11:06:19.329Z,112.50
2017-11-05T11:07:19.354Z,118.13
2017-11-05T11:08:19.453Z,118.13
2017-11-05T11:09:19.719Z,123.75
2017-11-05T11:10:19.467Z,123.75
2017-11-05T11:11:19.480Z,123.75
2017-11-05T11:12:19.508Z,123.75
2017-11-05T11:13:19.558Z,123.75
2017-11-05T11:14:19.577Z,123.75
2017-11-05T11:15:19.919Z,123.75
2017-11-05T11:16:19.647Z,123.75
2017-11-05T11:17:19.677Z,118.13
2017-11-05T11:18:19.692Z,118.13
2017-11-05T11:19:19.724Z,118.13
2017-11-05T11:20:19.762Z,118.13
2017-11-05T11:21:20.142Z,123.75
2017-11-05T11:22:19.820Z,129.38
2017-11-05T11:23:19.871Z,129.38
2017-11-05T11:24:19.876Z,129.38
2017-11-05T11:25:19.919Z,123.75
2017-11-05T11:26:19.938Z,123.75
2017-11-05T11:27:20.289Z,123.75
2017-11-05T11:28:20.017Z,123.75
2017-11-05T11:29:20.050Z,123.75
2017-11-05T11:30:20.083Z,123.75
2017-11-05T11:31:20.113Z,118.13
2017-11-05T11:32:20.126Z,118.13
2017-11-05T11:33:20.476Z,118.13
2017-11-05T11:34:20.210Z,123.75
2017-11-05T11:35:20.313Z,129.38
2017-11-05T11:36:20.367Z,129.38
2017-11-05T11:37:20.298Z,129.38
2017-11-05T11:38:20.311Z,129.38
2017-11-05T11:39:20.696Z,129.38
2017-11-05T11:40:20.393Z,129.38
2017-11-05T11:41:20.421Z,129.38
2017-11-05T11:42:20.455Z,129.38
2017-11-05T11:43:20.481Z,129.38
2017-11-05T11:44:20.504Z,129.38
2017-11-05T11:45:20.846Z,129.38
2017-11-05T11:46:20.576Z,129.38
2017-11-05T11:47:20.591Z,135.00
2017-11-05T11:48:20.819Z,135.00
2017-11-05T11:49:20.649Z,135.00
2017-11-05T11:50:20.700Z,135.00
2017-11-05T11:51:20.731Z,135.00
2017-11-05T11:52:20.994Z,135.00
2017-11-05T11:53:20.778Z,135.00
2017-11-05T11:54:20.820Z,135.00
2017-11-05T11:55:20.853Z,135.00
2017-11-05T11:56:20.864Z,135.00
2017-11-05T11:57:20.931Z,135.00
2017-11-05T11:58:20.925Z,140.63
2017-11-05T11:59:21.288Z,140.63
2017-11-05T12:00:21.008Z,140.63
2017-11-05T12:01:21.061Z,140.63
2017-11-05T12:02:21.068Z,140.63
2017-11-05T12:03:21.085Z,140.63
2017-11-05T12:04:21.132Z,140.63
2017-11-05T12:05:21.170Z,135.00
2017-11-05T12:06:21.432Z,123.75
2017-11-05T12:07:21.217Z,123.75
2017-11-05T12:08:21.252Z,118.13
2017-11-05T12:09:21.473Z,112.50
2017-11-05T12:10:21.317Z,106.88
2017-11-05T12:11:21.357Z,101.25
2017-11-05T12:12:21.375Z,101.25
2017-11-05T12:13:21.675Z,95.63
2017-11-05T12:14:21.446Z,95.63
2017-11-05T12:15:21.465Z,101.25
2017-11-05T12:16:21.512Z,106.88
2017-11-05T12:17:21.533Z,112.50
2017-11-05T12:18:21.556Z,112.50
2017-11-05T12:19:21.595Z,112.50
2017-11-05T12:20:21.881Z,118.13
2017-11-05T12:21:21.643Z,129.38
2017-11-05T12:22:21.696Z,140.63
2017-11-05T12:23:21.704Z,140.63
2017-11-05T12:24:21.762Z,140.63
2017-11-05T12:25:21.986Z,135.00
2017-11-05T12:26:21.797Z,129.38
2017-11-05T12:27:22.147Z,123.75
2017-11-05T12:28:21.881Z,123.75
2017-11-05T12:29:21.891Z,123.75
2017-11-05T12:30:21.924Z,123.75
2017-11-05T12:31:21.970Z,123.75
2017-11-05T12:32:21.985Z,123.75
2017-11-05T12:33:22.019Z,123.75
2017-11-05T12:34:22.367Z,123.75
2017-11-05T12:35:22.085Z,123.75
2017-11-05T12:36:22.143Z,123.75
2017-11-05T12:37:22.157Z,129.38
2017-11-05T12:38:22.209Z,129.38
2017-11-05T12:39:22.221Z,129.38
2017-11-05T12:40:22.255Z,129.38
2017-11-05T12:41:22.533Z,123.75
2017-11-05T12:42:22.313Z,123.75
2017-11-05T12:43:22.339Z,123.75
2017-11-05T12:44:22.382Z,118.13
2017-11-05T12:45:22.407Z,118.13
2017-11-05T12:46:22.506Z,118.13
2017-11-05T12:47:22.475Z,118.13
2017-11-05T12:48:22.785Z,118.13
2017-11-05T12:49:22.520Z,112.50
2017-11-05T12:50:22.563Z,106.88
2017-11-05T12:51:22.592Z,106.88
2017-11-05T12:52:22.614Z,101.25
2017-11-05T12:53:22.641Z,101.25
2017-11-05T12:54:22.668Z,95.63
2017-11-05T12:55:22.979Z,95.63
2017-11-05T12:56:22.734Z,90.00
2017-11-05T12:57:22.766Z,84.38
2017-11-05T12:58:22.794Z,84.38
2017-11-05T12:59:22.847Z,78.75
2017-11-05T13:00:22.921Z,84.38
2017-11-05T13:01:22.960Z,84.38
2017-11-05T13:02:23.237Z,90.00
2017-11-05T13:03:22.971Z,84.38
2017-11-05T13:04:22.986Z,78.75